sensor_id;sensor_type;location;lat;lon;timestamp;P1;durP1;ratioP1;P2;durP2;ratioP2
21521;SDS011;10922;45.572;10.002;2023-04-03T00:13:11;5.20;;;4.30;;
21521;SDS011;10922;45.572;10.002;2023-04-03T00:15:37;5.30;;;3.87;;
21521;SDS011;10922;45.572;10.002;2023-04-03T00:18:04;4.83;;;4.33;;
21521;SDS011;10922;45.572;10.002;2023-04-03T00:20:30;5.60;;;4.43;;
21521;SDS011;10922;45.572;10.002;2023-04-03T00:22:56;5.13;;;4.63;;
21521;SDS011;10922;45.572;10.002;2023-04-03T00:25:23;5.33;;;4.33;;
21521;SDS011;10922;45.572;10.002;2023-04-03T00:27:48;4.73;;;4.10;;
21521;SDS011;10922;45.572;10.002;2023-04-03T00:30:15;4.67;;;3.93;;
21521;SDS011;10922;45.572;10.002;2023-04-03T00:32:42;7.10;;;4.53;;
21521;SDS011;10922;45.572;10.002;2023-04-03T00:35:08;7.20;;;4.50;;
21521;SDS011;10922;45.572;10.002;2023-04-03T00:37:34;5.27;;;4.77;;
21521;SDS011;10922;45.572;10.002;2023-04-03T00:40:00;5.63;;;4.10;;
21521;SDS011;10922;45.572;10.002;2023-04-03T00:42:25;5.23;;;4.07;;
21521;SDS011;10922;45.572;10.002;2023-04-03T00:47:22;4.33;;;3.93;;
21521;SDS011;10922;45.572;10.002;2023-04-03T00:49:49;4.60;;;4.03;;
21521;SDS011;10922;45.572;10.002;2023-04-03T00:52:17;4.20;;;3.77;;
21521;SDS011;10922;45.572;10.002;2023-04-03T00:54:47;4.37;;;3.67;;
21521;SDS011;10922;45.572;10.002;2023-04-03T00:57:14;6.33;;;4.20;;
21521;SDS011;10922;45.572;10.002;2023-04-03T00:59:45;4.60;;;3.80;;
21521;SDS011;10922;45.572;10.002;2023-04-03T01:02:14;5.67;;;3.87;;
21521;SDS011;10922;45.572;10.002;2023-04-03T01:04:41;4.57;;;4.17;;
21521;SDS011;10922;45.572;10.002;2023-04-03T01:07:10;5.03;;;3.67;;
21521;SDS011;10922;45.572;10.002;2023-04-03T01:09:36;5.13;;;3.83;;
21521;SDS011;10922;45.572;10.002;2023-04-03T01:12:13;3.73;;;3.30;;
21521;SDS011;10922;45.572;10.002;2023-04-03T01:14:41;4.20;;;3.77;;
21521;SDS011;10922;45.572;10.002;2023-04-03T01:20:50;4.23;;;3.90;;
21521;SDS011;10922;45.572;10.002;2023-04-03T01:25:41;4.70;;;4.27;;
21521;SDS011;10922;45.572;10.002;2023-04-03T01:28:19;4.07;;;3.70;;
21521;SDS011;10922;45.572;10.002;2023-04-03T01:33:27;4.20;;;3.80;;
21521;SDS011;10922;45.572;10.002;2023-04-03T01:35:53;5.53;;;4.47;;
21521;SDS011;10922;45.572;10.002;2023-04-03T01:38:19;5.47;;;3.77;;
21521;SDS011;10922;45.572;10.002;2023-04-03T01:40:45;3.53;;;3.23;;
21521;SDS011;10922;45.572;10.002;2023-04-03T01:43:11;6.20;;;3.60;;
21521;SDS011;10922;45.572;10.002;2023-04-03T01:45:36;5.53;;;3.43;;
21521;SDS011;10922;45.572;10.002;2023-04-03T01:48:02;5.67;;;3.40;;
21521;SDS011;10922;45.572;10.002;2023-04-03T01:50:30;5.20;;;4.00;;
21521;SDS011;10922;45.572;10.002;2023-04-03T01:52:55;4.10;;;3.70;;
21521;SDS011;10922;45.572;10.002;2023-04-03T01:55:21;4.13;;;3.67;;
21521;SDS011;10922;45.572;10.002;2023-04-03T01:57:47;4.80;;;3.50;;
21521;SDS011;10922;45.572;10.002;2023-04-03T02:00:12;5.63;;;4.00;;
21521;SDS011;10922;45.572;10.002;2023-04-03T02:02:39;5.27;;;3.53;;
21521;SDS011;10922;45.572;10.002;2023-04-03T02:05:05;4.23;;;3.60;;
21521;SDS011;10922;45.572;10.002;2023-04-03T02:07:31;4.83;;;3.93;;
21521;SDS011;10922;45.572;10.002;2023-04-03T02:09:57;4.87;;;3.87;;
21521;SDS011;10922;45.572;10.002;2023-04-03T02:12:22;4.00;;;3.57;;
21521;SDS011;10922;45.572;10.002;2023-04-03T02:14:48;3.83;;;3.43;;
21521;SDS011;10922;45.572;10.002;2023-04-03T02:17:13;3.67;;;3.30;;
21521;SDS011;10922;45.572;10.002;2023-04-03T02:19:39;3.90;;;3.43;;
21521;SDS011;10922;45.572;10.002;2023-04-03T02:22:05;3.57;;;3.27;;
21521;SDS011;10922;45.572;10.002;2023-04-03T02:24:31;4.33;;;3.33;;
21521;SDS011;10922;45.572;10.002;2023-04-03T02:26:57;5.47;;;3.60;;
21521;SDS011;10922;45.572;10.002;2023-04-03T02:29:23;4.70;;;3.20;;
21521;SDS011;10922;45.572;10.002;2023-04-03T02:31:48;4.13;;;3.70;;
21521;SDS011;10922;45.572;10.002;2023-04-03T02:34:15;3.37;;;3.07;;
21521;SDS011;10922;45.572;10.002;2023-04-03T02:36:41;3.37;;;3.10;;
21521;SDS011;10922;45.572;10.002;2023-04-03T02:39:06;3.40;;;3.10;;
21521;SDS011;10922;45.572;10.002;2023-04-03T02:41:32;5.17;;;2.90;;
21521;SDS011;10922;45.572;10.002;2023-04-03T02:44:01;4.37;;;3.10;;
21521;SDS011;10922;45.572;10.002;2023-04-03T02:46:28;4.00;;;3.07;;
21521;SDS011;10922;45.572;10.002;2023-04-03T02:48:53;2.70;;;2.43;;
21521;SDS011;10922;45.572;10.002;2023-04-03T02:51:19;3.27;;;2.87;;
21521;SDS011;10922;45.572;10.002;2023-04-03T02:53:45;4.90;;;2.80;;
21521;SDS011;10922;45.572;10.002;2023-04-03T02:56:10;3.80;;;2.93;;
21521;SDS011;10922;45.572;10.002;2023-04-03T02:58:38;3.37;;;3.03;;
21521;SDS011;10922;45.572;10.002;2023-04-03T03:01:04;5.00;;;3.00;;
21521;SDS011;10922;45.572;10.002;2023-04-03T03:03:30;3.13;;;2.83;;
21521;SDS011;10922;45.572;10.002;2023-04-03T03:06:02;3.20;;;2.73;;
21521;SDS011;10922;45.572;10.002;2023-04-03T03:08:38;3.83;;;2.97;;
21521;SDS011;10922;45.572;10.002;2023-04-03T03:11:04;2.87;;;2.63;;
21521;SDS011;10922;45.572;10.002;2023-04-03T03:13:30;2.97;;;2.70;;
21521;SDS011;10922;45.572;10.002;2023-04-03T03:15:56;3.13;;;2.93;;
21521;SDS011;10922;45.572;10.002;2023-04-03T03:18:22;2.60;;;2.40;;
21521;SDS011;10922;45.572;10.002;2023-04-03T03:20:54;3.37;;;2.73;;
21521;SDS011;10922;45.572;10.002;2023-04-03T03:23:21;4.57;;;2.63;;
21521;SDS011;10922;45.572;10.002;2023-04-03T03:25:48;3.83;;;2.20;;
21521;SDS011;10922;45.572;10.002;2023-04-03T03:28:14;3.37;;;2.30;;
21521;SDS011;10922;45.572;10.002;2023-04-03T03:30:40;2.47;;;2.27;;
21521;SDS011;10922;45.572;10.002;2023-04-03T03:33:05;2.10;;;2.00;;
21521;SDS011;10922;45.572;10.002;2023-04-03T03:35:31;4.40;;;2.70;;
21521;SDS011;10922;45.572;10.002;2023-04-03T03:37:57;3.30;;;2.50;;
21521;SDS011;10922;45.572;10.002;2023-04-03T03:40:23;3.37;;;2.60;;
21521;SDS011;10922;45.572;10.002;2023-04-03T03:42:48;2.23;;;1.90;;
21521;SDS011;10922;45.572;10.002;2023-04-03T03:45:14;5.57;;;2.60;;
21521;SDS011;10922;45.572;10.002;2023-04-03T03:47:40;2.90;;;2.20;;
21521;SDS011;10922;45.572;10.002;2023-04-03T03:50:06;5.87;;;2.50;;
21521;SDS011;10922;45.572;10.002;2023-04-03T03:52:32;7.17;;;2.13;;
21521;SDS011;10922;45.572;10.002;2023-04-03T03:54:57;4.47;;;2.50;;
21521;SDS011;10922;45.572;10.002;2023-04-03T03:57:23;3.43;;;2.47;;
21521;SDS011;10922;45.572;10.002;2023-04-03T03:59:49;2.03;;;1.93;;
21521;SDS011;10922;45.572;10.002;2023-04-03T04:02:16;2.00;;;1.80;;
21521;SDS011;10922;45.572;10.002;2023-04-03T04:04:42;3.00;;;2.10;;
21521;SDS011;10922;45.572;10.002;2023-04-03T04:07:07;3.40;;;2.03;;
21521;SDS011;10922;45.572;10.002;2023-04-03T04:09:33;5.43;;;2.50;;
21521;SDS011;10922;45.572;10.002;2023-04-03T04:11:59;3.50;;;2.50;;
21521;SDS011;10922;45.572;10.002;2023-04-03T04:14:24;3.23;;;1.97;;
21521;SDS011;10922;45.572;10.002;2023-04-03T04:16:50;4.00;;;2.40;;
21521;SDS011;10922;45.572;10.002;2023-04-03T04:19:16;3.47;;;1.70;;
21521;SDS011;10922;45.572;10.002;2023-04-03T04:21:41;7.97;;;2.37;;
21521;SDS011;10922;45.572;10.002;2023-04-03T04:24:08;3.30;;;2.20;;
21521;SDS011;10922;45.572;10.002;2023-04-03T04:26:34;5.67;;;2.53;;
21521;SDS011;10922;45.572;10.002;2023-04-03T04:28:59;3.87;;;2.17;;
21521;SDS011;10922;45.572;10.002;2023-04-03T04:31:25;3.30;;;2.10;;
21521;SDS011;10922;45.572;10.002;2023-04-03T04:33:51;4.70;;;2.30;;
21521;SDS011;10922;45.572;10.002;2023-04-03T04:36:17;5.27;;;2.57;;
21521;SDS011;10922;45.572;10.002;2023-04-03T04:38:43;4.80;;;2.60;;
21521;SDS011;10922;45.572;10.002;2023-04-03T04:41:09;2.83;;;2.53;;
21521;SDS011;10922;45.572;10.002;2023-04-03T04:43:35;6.03;;;2.70;;
21521;SDS011;10922;45.572;10.002;2023-04-03T04:46:04;3.80;;;2.67;;
21521;SDS011;10922;45.572;10.002;2023-04-03T04:48:32;4.93;;;2.80;;
21521;SDS011;10922;45.572;10.002;2023-04-03T04:50:58;4.30;;;2.60;;
21521;SDS011;10922;45.572;10.002;2023-04-03T04:53:24;3.93;;;2.70;;
21521;SDS011;10922;45.572;10.002;2023-04-03T04:55:50;4.50;;;2.10;;
21521;SDS011;10922;45.572;10.002;2023-04-03T04:58:16;3.23;;;2.83;;
21521;SDS011;10922;45.572;10.002;2023-04-03T05:00:42;4.40;;;2.40;;
21521;SDS011;10922;45.572;10.002;2023-04-03T05:03:08;4.53;;;2.10;;
21521;SDS011;10922;45.572;10.002;2023-04-03T05:05:33;3.50;;;2.20;;
21521;SDS011;10922;45.572;10.002;2023-04-03T05:08:00;4.53;;;2.20;;
21521;SDS011;10922;45.572;10.002;2023-04-03T05:10:27;2.57;;;1.70;;
21521;SDS011;10922;45.572;10.002;2023-04-03T05:12:52;2.83;;;2.07;;
21521;SDS011;10922;45.572;10.002;2023-04-03T05:15:18;3.03;;;1.87;;
21521;SDS011;10922;45.572;10.002;2023-04-03T05:17:44;3.10;;;1.67;;
21521;SDS011;10922;45.572;10.002;2023-04-03T05:20:10;2.47;;;1.77;;
21521;SDS011;10922;45.572;10.002;2023-04-03T05:22:36;5.27;;;2.20;;
21521;SDS011;10922;45.572;10.002;2023-04-03T05:25:02;2.67;;;2.00;;
21521;SDS011;10922;45.572;10.002;2023-04-03T05:27:28;5.53;;;2.40;;
21521;SDS011;10922;45.572;10.002;2023-04-03T05:29:54;2.13;;;1.93;;
21521;SDS011;10922;45.572;10.002;2023-04-03T05:32:20;4.60;;;1.77;;
21521;SDS011;10922;45.572;10.002;2023-04-03T05:34:51;2.83;;;1.87;;
21521;SDS011;10922;45.572;10.002;2023-04-03T05:37:17;1.50;;;1.30;;
21521;SDS011;10922;45.572;10.002;2023-04-03T05:39:43;3.87;;;1.90;;
21521;SDS011;10922;45.572;10.002;2023-04-03T05:42:09;2.70;;;1.67;;
21521;SDS011;10922;45.572;10.002;2023-04-03T05:44:38;2.27;;;1.80;;
21521;SDS011;10922;45.572;10.002;2023-04-03T05:47:05;1.77;;;1.67;;
21521;SDS011;10922;45.572;10.002;2023-04-03T05:49:31;4.20;;;1.90;;
21521;SDS011;10922;45.572;10.002;2023-04-03T05:51:57;3.23;;;1.80;;
21521;SDS011;10922;45.572;10.002;2023-04-03T05:54:24;3.60;;;1.83;;
21521;SDS011;10922;45.572;10.002;2023-04-03T05:56:52;3.47;;;2.17;;
21521;SDS011;10922;45.572;10.002;2023-04-03T05:59:18;2.43;;;1.90;;
21521;SDS011;10922;45.572;10.002;2023-04-03T06:01:44;3.93;;;2.10;;
21521;SDS011;10922;45.572;10.002;2023-04-03T06:04:11;4.33;;;2.30;;
21521;SDS011;10922;45.572;10.002;2023-04-03T06:06:48;4.73;;;1.93;;
21521;SDS011;10922;45.572;10.002;2023-04-03T06:09:18;1.97;;;1.67;;
21521;SDS011;10922;45.572;10.002;2023-04-03T06:11:46;3.20;;;1.90;;
21521;SDS011;10922;45.572;10.002;2023-04-03T06:14:11;4.50;;;2.30;;
21521;SDS011;10922;45.572;10.002;2023-04-03T06:16:37;3.43;;;1.70;;
21521;SDS011;10922;45.572;10.002;2023-04-03T06:19:04;4.63;;;2.30;;
21521;SDS011;10922;45.572;10.002;2023-04-03T06:21:31;6.07;;;2.47;;
21521;SDS011;10922;45.572;10.002;2023-04-03T06:23:57;3.80;;;2.30;;
21521;SDS011;10922;45.572;10.002;2023-04-03T06:26:23;2.63;;;2.03;;
21521;SDS011;10922;45.572;10.002;2023-04-03T06:28:48;5.43;;;1.97;;
21521;SDS011;10922;45.572;10.002;2023-04-03T06:31:14;3.90;;;2.27;;
21521;SDS011;10922;45.572;10.002;2023-04-03T06:33:43;2.47;;;2.23;;
21521;SDS011;10922;45.572;10.002;2023-04-03T06:36:09;3.20;;;2.40;;
21521;SDS011;10922;45.572;10.002;2023-04-03T06:38:36;5.17;;;2.07;;
21521;SDS011;10922;45.572;10.002;2023-04-03T06:41:02;3.87;;;2.23;;
21521;SDS011;10922;45.572;10.002;2023-04-03T06:43:28;7.57;;;2.50;;
21521;SDS011;10922;45.572;10.002;2023-04-03T06:45:53;2.93;;;2.10;;
21521;SDS011;10922;45.572;10.002;2023-04-03T06:48:19;3.40;;;2.40;;
21521;SDS011;10922;45.572;10.002;2023-04-03T06:50:45;2.67;;;1.73;;
21521;SDS011;10922;45.572;10.002;2023-04-03T06:53:11;3.53;;;2.20;;
21521;SDS011;10922;45.572;10.002;2023-04-03T06:55:37;4.27;;;2.47;;
21521;SDS011;10922;45.572;10.002;2023-04-03T06:58:03;4.73;;;2.43;;
21521;SDS011;10922;45.572;10.002;2023-04-03T07:00:28;5.53;;;1.90;;
21521;SDS011;10922;45.572;10.002;2023-04-03T07:02:55;8.07;;;2.80;;
21521;SDS011;10922;45.572;10.002;2023-04-03T07:05:22;6.17;;;2.60;;
21521;SDS011;10922;45.572;10.002;2023-04-03T07:07:48;8.33;;;2.53;;
21521;SDS011;10922;45.572;10.002;2023-04-03T07:10:15;2.90;;;2.30;;
21521;SDS011;10922;45.572;10.002;2023-04-03T07:12:41;3.47;;;2.40;;
21521;SDS011;10922;45.572;10.002;2023-04-03T07:15:07;5.53;;;2.60;;
21521;SDS011;10922;45.572;10.002;2023-04-03T07:17:33;2.67;;;2.47;;
21521;SDS011;10922;45.572;10.002;2023-04-03T07:19:59;3.37;;;2.27;;
21521;SDS011;10922;45.572;10.002;2023-04-03T07:22:25;5.40;;;2.33;;
21521;SDS011;10922;45.572;10.002;2023-04-03T07:24:50;3.27;;;2.40;;
21521;SDS011;10922;45.572;10.002;2023-04-03T07:27:16;5.03;;;2.87;;
21521;SDS011;10922;45.572;10.002;2023-04-03T07:29:42;12.90;;;2.90;;
21521;SDS011;10922;45.572;10.002;2023-04-03T07:32:09;5.93;;;2.80;;
21521;SDS011;10922;45.572;10.002;2023-04-03T07:34:35;5.77;;;2.83;;
21521;SDS011;10922;45.572;10.002;2023-04-03T07:37:01;5.23;;;2.57;;
21521;SDS011;10922;45.572;10.002;2023-04-03T07:39:27;2.67;;;2.40;;
21521;SDS011;10922;45.572;10.002;2023-04-03T07:41:54;2.87;;;2.40;;
21521;SDS011;10922;45.572;10.002;2023-04-03T07:44:22;1.93;;;1.73;;
21521;SDS011;10922;45.572;10.002;2023-04-03T07:46:48;4.10;;;2.10;;
21521;SDS011;10922;45.572;10.002;2023-04-03T07:49:15;4.97;;;1.90;;
21521;SDS011;10922;45.572;10.002;2023-04-03T07:51:43;2.97;;;1.93;;
21521;SDS011;10922;45.572;10.002;2023-04-03T07:54:09;1.80;;;1.70;;
21521;SDS011;10922;45.572;10.002;2023-04-03T07:56:35;2.23;;;2.03;;
21521;SDS011;10922;45.572;10.002;2023-04-03T07:59:00;1.70;;;1.60;;
21521;SDS011;10922;45.572;10.002;2023-04-03T08:01:26;1.57;;;1.43;;
21521;SDS011;10922;45.572;10.002;2023-04-03T08:03:52;3.63;;;2.00;;
21521;SDS011;10922;45.572;10.002;2023-04-03T08:06:18;3.97;;;2.10;;
21521;SDS011;10922;45.572;10.002;2023-04-03T08:08:45;2.53;;;1.90;;
21521;SDS011;10922;45.572;10.002;2023-04-03T08:11:14;1.93;;;1.53;;
21521;SDS011;10922;45.572;10.002;2023-04-03T08:13:40;2.73;;;1.67;;
21521;SDS011;10922;45.572;10.002;2023-04-03T08:16:09;2.03;;;1.60;;
21521;SDS011;10922;45.572;10.002;2023-04-03T08:18:41;1.77;;;1.50;;
21521;SDS011;10922;45.572;10.002;2023-04-03T08:21:10;14.40;;;2.57;;
21521;SDS011;10922;45.572;10.002;2023-04-03T08:23:37;2.90;;;2.20;;
21521;SDS011;10922;45.572;10.002;2023-04-03T08:26:07;2.60;;;1.73;;
21521;SDS011;10922;45.572;10.002;2023-04-03T08:28:34;2.17;;;1.80;;
21521;SDS011;10922;45.572;10.002;2023-04-03T08:31:04;3.37;;;2.20;;
21521;SDS011;10922;45.572;10.002;2023-04-03T08:33:31;3.90;;;2.03;;
21521;SDS011;10922;45.572;10.002;2023-04-03T08:35:58;5.43;;;2.07;;
21521;SDS011;10922;45.572;10.002;2023-04-03T08:38:24;2.20;;;1.97;;
21521;SDS011;10922;45.572;10.002;2023-04-03T08:41:02;2.77;;;1.80;;
21521;SDS011;10922;45.572;10.002;2023-04-03T08:45:55;2.17;;;1.80;;
21521;SDS011;10922;45.572;10.002;2023-04-03T08:48:36;2.80;;;1.90;;
21521;SDS011;10922;45.572;10.002;2023-04-03T08:51:13;2.27;;;1.80;;
21521;SDS011;10922;45.572;10.002;2023-04-03T08:53:46;1.87;;;1.53;;
21521;SDS011;10922;45.572;10.002;2023-04-03T08:56:21;2.40;;;1.80;;
21521;SDS011;10922;45.572;10.002;2023-04-03T08:58:59;2.20;;;1.80;;
21521;SDS011;10922;45.572;10.002;2023-04-03T09:03:57;1.53;;;1.43;;
21521;SDS011;10922;45.572;10.002;2023-04-03T09:06:29;1.80;;;1.70;;
21521;SDS011;10922;45.572;10.002;2023-04-03T09:16:55;5.70;;;2.00;;
21521;SDS011;10922;45.572;10.002;2023-04-03T09:22:07;4.50;;;1.70;;
21521;SDS011;10922;45.572;10.002;2023-04-03T09:27:52;1.93;;;1.80;;
21521;SDS011;10922;45.572;10.002;2023-04-03T09:30:22;2.93;;;1.70;;
21521;SDS011;10922;45.572;10.002;2023-04-03T09:32:51;7.57;;;2.03;;
21521;SDS011;10922;45.572;10.002;2023-04-03T09:35:25;2.13;;;1.83;;
21521;SDS011;10922;45.572;10.002;2023-04-03T09:37:54;2.17;;;1.80;;
21521;SDS011;10922;45.572;10.002;2023-04-03T09:40:43;3.00;;;1.83;;
21521;SDS011;10922;45.572;10.002;2023-04-03T09:45:55;2.00;;;1.80;;
21521;SDS011;10922;45.572;10.002;2023-04-03T09:48:40;2.53;;;1.80;;
21521;SDS011;10922;45.572;10.002;2023-04-03T09:51:16;3.13;;;2.20;;
21521;SDS011;10922;45.572;10.002;2023-04-03T09:53:42;3.03;;;1.93;;
21521;SDS011;10922;45.572;10.002;2023-04-03T09:58:42;1.93;;;1.80;;
21521;SDS011;10922;45.572;10.002;2023-04-03T10:01:29;4.00;;;1.80;;
21521;SDS011;10922;45.572;10.002;2023-04-03T10:06:46;1.87;;;1.70;;
21521;SDS011;10922;45.572;10.002;2023-04-03T10:09:26;3.43;;;2.10;;
21521;SDS011;10922;45.572;10.002;2023-04-03T10:14:22;3.03;;;1.70;;
21521;SDS011;10922;45.572;10.002;2023-04-03T10:16:53;3.20;;;1.90;;
21521;SDS011;10922;45.572;10.002;2023-04-03T10:19:41;4.93;;;2.20;;
21521;SDS011;10922;45.572;10.002;2023-04-03T10:28:05;2.03;;;1.90;;
21521;SDS011;10922;45.572;10.002;2023-04-03T10:47:12;2.43;;;2.23;;
21521;SDS011;10922;45.572;10.002;2023-04-03T10:52:26;2.47;;;2.27;;
21521;SDS011;10922;45.572;10.002;2023-04-03T10:55:00;3.47;;;1.77;;
21521;SDS011;10922;45.572;10.002;2023-04-03T10:57:28;1.83;;;1.67;;
21521;SDS011;10922;45.572;10.002;2023-04-03T10:59:56;4.17;;;1.90;;
21521;SDS011;10922;45.572;10.002;2023-04-03T11:10:47;3.10;;;2.60;;
21521;SDS011;10922;45.572;10.002;2023-04-03T11:13:21;2.90;;;2.10;;
21521;SDS011;10922;45.572;10.002;2023-04-03T11:16:08;3.63;;;2.43;;
21521;SDS011;10922;45.572;10.002;2023-04-03T11:23:46;21.97;;;2.70;;
21521;SDS011;10922;45.572;10.002;2023-04-03T11:26:17;23.00;;;5.23;;
21521;SDS011;10922;45.572;10.002;2023-04-03T11:28:46;8.83;;;3.23;;
21521;SDS011;10922;45.572;10.002;2023-04-03T11:31:26;8.77;;;3.00;;
21521;SDS011;10922;45.572;10.002;2023-04-03T11:36:51;5.90;;;2.93;;
21521;SDS011;10922;45.572;10.002;2023-04-03T11:39:23;23.10;;;5.10;;
21521;SDS011;10922;45.572;10.002;2023-04-03T11:41:55;6.80;;;2.43;;
21521;SDS011;10922;45.572;10.002;2023-04-03T11:44:38;3.00;;;1.80;;
21521;SDS011;10922;45.572;10.002;2023-04-03T11:47:04;2.33;;;2.07;;
21521;SDS011;10922;45.572;10.002;2023-04-03T12:05:53;3.17;;;1.93;;
21521;SDS011;10922;45.572;10.002;2023-04-03T12:13:36;3.67;;;1.60;;
21521;SDS011;10922;45.572;10.002;2023-04-03T12:16:04;3.80;;;1.87;;
21521;SDS011;10922;45.572;10.002;2023-04-03T12:29:01;2.10;;;2.00;;
21521;SDS011;10922;45.572;10.002;2023-04-03T12:31:41;3.50;;;2.17;;
21521;SDS011;10922;45.572;10.002;2023-04-03T12:37:17;2.40;;;2.20;;
21521;SDS011;10922;45.572;10.002;2023-04-03T12:45:46;4.70;;;2.30;;
21521;SDS011;10922;45.572;10.002;2023-04-03T12:48:26;5.83;;;2.50;;
21521;SDS011;10922;45.572;10.002;2023-04-03T12:50:53;5.07;;;2.47;;
21521;SDS011;10922;45.572;10.002;2023-04-03T12:53:21;3.30;;;1.97;;
21521;SDS011;10922;45.572;10.002;2023-04-03T12:55:54;3.53;;;2.60;;
21521;SDS011;10922;45.572;10.002;2023-04-03T13:01:08;2.60;;;2.20;;
21521;SDS011;10922;45.572;10.002;2023-04-03T13:03:43;2.20;;;2.00;;
21521;SDS011;10922;45.572;10.002;2023-04-03T13:06:19;2.53;;;2.17;;
21521;SDS011;10922;45.572;10.002;2023-04-03T13:08:49;2.80;;;2.25;;
21521;SDS011;10922;45.572;10.002;2023-04-03T13:11:21;3.38;;;2.40;;
21521;SDS011;10922;45.572;10.002;2023-04-03T13:14:00;3.50;;;2.50;;
21521;SDS011;10922;45.572;10.002;2023-04-03T13:16:30;5.93;;;2.75;;
21521;SDS011;10922;45.572;10.002;2023-04-03T13:18:57;4.05;;;2.38;;
21521;SDS011;10922;45.572;10.002;2023-04-03T13:21:24;3.63;;;2.40;;
21521;SDS011;10922;45.572;10.002;2023-04-03T13:23:57;2.75;;;2.30;;
21521;SDS011;10922;45.572;10.002;2023-04-03T13:26:29;3.53;;;2.50;;
21521;SDS011;10922;45.572;10.002;2023-04-03T13:29:00;3.20;;;2.55;;
21521;SDS011;10922;45.572;10.002;2023-04-03T13:31:30;2.70;;;2.50;;
21521;SDS011;10922;45.572;10.002;2023-04-03T13:34:15;3.45;;;2.75;;
21521;SDS011;10922;45.572;10.002;2023-04-03T13:36:44;4.57;;;2.90;;
21521;SDS011;10922;45.572;10.002;2023-04-03T13:41:57;5.50;;;2.50;;
21521;SDS011;10922;45.572;10.002;2023-04-03T13:44:28;4.38;;;2.70;;
21521;SDS011;10922;45.572;10.002;2023-04-03T13:47:01;3.40;;;2.63;;
21521;SDS011;10922;45.572;10.002;2023-04-03T13:50:31;3.47;;;2.35;;
21521;SDS011;10922;45.572;10.002;2023-04-03T13:52:45;7.50;;;2.40;;
21521;SDS011;10922;45.572;10.002;2023-04-03T14:00:32;3.55;;;2.42;;
21521;SDS011;10922;45.572;10.002;2023-04-03T14:03:07;2.65;;;2.25;;
21521;SDS011;10922;45.572;10.002;2023-04-03T14:05:49;6.35;;;2.47;;
21521;SDS011;10922;45.572;10.002;2023-04-03T14:08:16;4.05;;;2.70;;
21521;SDS011;10922;45.572;10.002;2023-04-03T14:10:42;3.05;;;2.67;;
21521;SDS011;10922;45.572;10.002;2023-04-03T14:13:12;4.28;;;2.33;;
21521;SDS011;10922;45.572;10.002;2023-04-03T14:15:40;4.57;;;2.50;;
21521;SDS011;10922;45.572;10.002;2023-04-03T14:18:06;6.03;;;3.03;;
21521;SDS011;10922;45.572;10.002;2023-04-03T14:20:31;5.28;;;2.55;;
21521;SDS011;10922;45.572;10.002;2023-04-03T14:22:57;4.03;;;2.42;;
21521;SDS011;10922;45.572;10.002;2023-04-03T14:25:23;2.58;;;2.38;;
21521;SDS011;10922;45.572;10.002;2023-04-03T14:27:53;4.22;;;2.20;;
21521;SDS011;10922;45.572;10.002;2023-04-03T14:30:30;3.35;;;2.33;;
21521;SDS011;10922;45.572;10.002;2023-04-03T14:32:58;2.88;;;2.50;;
21521;SDS011;10922;45.572;10.002;2023-04-03T14:35:25;3.63;;;2.58;;
21521;SDS011;10922;45.572;10.002;2023-04-03T14:37:51;4.97;;;2.47;;
21521;SDS011;10922;45.572;10.002;2023-04-03T14:40:20;6.50;;;2.60;;
21521;SDS011;10922;45.572;10.002;2023-04-03T14:42:49;2.72;;;2.17;;
21521;SDS011;10922;45.572;10.002;2023-04-03T14:45:15;3.67;;;2.92;;
21521;SDS011;10922;45.572;10.002;2023-04-03T14:47:47;2.83;;;2.45;;
21521;SDS011;10922;45.572;10.002;2023-04-03T14:50:22;3.15;;;2.47;;
21521;SDS011;10922;45.572;10.002;2023-04-03T14:52:50;3.15;;;2.38;;
21521;SDS011;10922;45.572;10.002;2023-04-03T14:55:19;5.47;;;3.20;;
21521;SDS011;10922;45.572;10.002;2023-04-03T14:57:49;3.97;;;3.05;;
21521;SDS011;10922;45.572;10.002;2023-04-03T15:00:16;3.97;;;2.80;;
21521;SDS011;10922;45.572;10.002;2023-04-03T15:02:49;3.08;;;2.50;;
21521;SDS011;10922;45.572;10.002;2023-04-03T15:05:15;5.07;;;3.20;;
21521;SDS011;10922;45.572;10.002;2023-04-03T15:07:43;3.72;;;2.70;;
21521;SDS011;10922;45.572;10.002;2023-04-03T15:10:15;4.50;;;3.10;;
21521;SDS011;10922;45.572;10.002;2023-04-03T15:12:42;4.15;;;2.85;;
21521;SDS011;10922;45.572;10.002;2023-04-03T15:15:08;4.72;;;3.08;;
21521;SDS011;10922;45.572;10.002;2023-04-03T15:17:35;4.65;;;3.25;;
21521;SDS011;10922;45.572;10.002;2023-04-03T15:20:02;4.68;;;2.75;;
21521;SDS011;10922;45.572;10.002;2023-04-03T15:22:35;4.32;;;2.67;;
21521;SDS011;10922;45.572;10.002;2023-04-03T15:25:01;3.90;;;2.67;;
21521;SDS011;10922;45.572;10.002;2023-04-03T15:27:28;6.20;;;3.00;;
21521;SDS011;10922;45.572;10.002;2023-04-03T15:29:53;5.65;;;2.85;;
21521;SDS011;10922;45.572;10.002;2023-04-03T15:32:19;3.95;;;2.95;;
21521;SDS011;10922;45.572;10.002;2023-04-03T15:34:45;6.38;;;3.20;;
21521;SDS011;10922;45.572;10.002;2023-04-03T15:37:11;4.25;;;2.88;;
21521;SDS011;10922;45.572;10.002;2023-04-03T15:39:37;3.63;;;3.00;;
21521;SDS011;10922;45.572;10.002;2023-04-03T15:42:03;7.38;;;2.85;;
21521;SDS011;10922;45.572;10.002;2023-04-03T15:44:31;4.60;;;2.70;;
21521;SDS011;10922;45.572;10.002;2023-04-03T15:46:58;3.78;;;3.10;;
21521;SDS011;10922;45.572;10.002;2023-04-03T15:49:25;3.88;;;2.78;;
21521;SDS011;10922;45.572;10.002;2023-04-03T15:51:51;6.13;;;3.72;;
21521;SDS011;10922;45.572;10.002;2023-04-03T15:54:17;5.45;;;3.20;;
21521;SDS011;10922;45.572;10.002;2023-04-03T15:56:43;4.72;;;3.22;;
21521;SDS011;10922;45.572;10.002;2023-04-03T15:59:09;7.15;;;3.35;;
21521;SDS011;10922;45.572;10.002;2023-04-03T16:01:36;5.38;;;3.00;;
21521;SDS011;10922;45.572;10.002;2023-04-03T16:04:02;4.88;;;3.00;;
21521;SDS011;10922;45.572;10.002;2023-04-03T16:06:36;4.72;;;3.03;;
21521;SDS011;10922;45.572;10.002;2023-04-03T16:09:02;5.00;;;3.20;;
21521;SDS011;10922;45.572;10.002;2023-04-03T16:11:29;3.65;;;2.58;;
21521;SDS011;10922;45.572;10.002;2023-04-03T16:13:55;5.88;;;2.90;;
21521;SDS011;10922;45.572;10.002;2023-04-03T16:16:21;6.18;;;2.65;;
21521;SDS011;10922;45.572;10.002;2023-04-03T16:18:48;4.53;;;2.88;;
21521;SDS011;10922;45.572;10.002;2023-04-03T16:21:14;4.00;;;2.67;;
21521;SDS011;10922;45.572;10.002;2023-04-03T16:23:41;5.68;;;2.78;;
21521;SDS011;10922;45.572;10.002;2023-04-03T16:26:09;4.25;;;3.00;;
21521;SDS011;10922;45.572;10.002;2023-04-03T16:28:35;5.75;;;3.30;;
21521;SDS011;10922;45.572;10.002;2023-04-03T16:31:00;3.17;;;2.65;;
21521;SDS011;10922;45.572;10.002;2023-04-03T16:33:27;4.55;;;3.05;;
21521;SDS011;10922;45.572;10.002;2023-04-03T16:35:54;7.07;;;2.60;;
21521;SDS011;10922;45.572;10.002;2023-04-03T16:38:20;3.58;;;2.78;;
21521;SDS011;10922;45.572;10.002;2023-04-03T16:40:48;5.90;;;3.10;;
21521;SDS011;10922;45.572;10.002;2023-04-03T16:43:15;6.45;;;3.30;;
21521;SDS011;10922;45.572;10.002;2023-04-03T16:45:41;5.63;;;3.47;;
21521;SDS011;10922;45.572;10.002;2023-04-03T16:48:07;4.43;;;3.03;;
21521;SDS011;10922;45.572;10.002;2023-04-03T16:50:33;4.47;;;3.20;;
21521;SDS011;10922;45.572;10.002;2023-04-03T16:52:58;5.30;;;2.90;;
21521;SDS011;10922;45.572;10.002;2023-04-03T16:55:24;3.33;;;2.80;;
21521;SDS011;10922;45.572;10.002;2023-04-03T16:57:50;7.17;;;3.20;;
21521;SDS011;10922;45.572;10.002;2023-04-03T17:00:19;5.10;;;2.90;;
21521;SDS011;10922;45.572;10.002;2023-04-03T17:02:45;4.13;;;3.00;;
21521;SDS011;10922;45.572;10.002;2023-04-03T17:05:10;3.83;;;3.27;;